createdAt,value
2023-02-11T00:00:06.691Z,74.83
2023-02-11T00:00:45.782Z,73.93
2023-02-11T00:01:30.464Z,74.27
2023-02-11T00:02:09.962Z,75.63
2023-02-11T00:02:56.850Z,75.10
2023-02-11T00:03:36.749Z,73.83
2023-02-11T00:04:20.374Z,73.03
2023-02-11T00:05:01.526Z,72.23
2023-02-11T00:05:41.235Z,71.50
2023-02-11T00:07:14.521Z,73.27
2023-02-11T00:08:18.681Z,73.53
2023-02-11T00:09:43.924Z,76.83
2023-02-11T00:10:31.344Z,75.10
2023-02-11T00:11:20.312Z,74.37
2023-02-11T00:12:00.349Z,75.17
2023-02-11T00:12:42.718Z,74.33
2023-02-11T00:13:27.671Z,75.13
2023-02-11T00:15:25.470Z,74.17
2023-02-11T00:16:14.211Z,73.03
2023-02-11T00:16:54.657Z,74.03
2023-02-11T00:17:36.791Z,72.90
2023-02-11T00:18:15.568Z,72.03
2023-02-11T00:19:02.872Z,71.43
2023-02-11T00:19:44.585Z,72.00
2023-02-11T00:20:23.739Z,76.57
2023-02-11T00:21:54.774Z,72.43
2023-02-11T00:22:36.336Z,73.03
2023-02-11T00:23:40.641Z,75.40
2023-02-11T00:24:19.354Z,73.13
2023-02-11T00:25:01.640Z,72.87
2023-02-11T00:25:46.025Z,74.67
2023-02-11T00:32:05.297Z,78.57
2023-02-11T00:33:24.366Z,79.63
2023-02-11T00:34:41.243Z,80.00
2023-02-11T00:35:21.767Z,79.50
2023-02-11T00:36:08.987Z,77.37
2023-02-11T00:37:03.085Z,79.10
2023-02-11T00:37:42.471Z,77.80
2023-02-11T00:38:22.618Z,77.83
2023-02-11T00:39:15.752Z,77.57
2023-02-11T00:39:57.375Z,76.53
2023-02-11T00:42:07.543Z,77.53
2023-02-11T00:44:05.222Z,78.03
2023-02-11T00:46:10.997Z,77.13
2023-02-11T00:46:59.456Z,77.50
2023-02-11T00:49:00.344Z,77.17
2023-02-11T00:49:40.537Z,78.27
2023-02-11T00:50:20.081Z,79.33
2023-02-11T00:50:59.656Z,79.13
2023-02-11T00:52:16.048Z,80.73
2023-02-11T00:52:55.105Z,78.17
2023-02-11T00:53:42.834Z,79.70
2023-02-11T00:54:48.153Z,77.77
2023-02-11T00:55:26.757Z,78.00
2023-02-11T00:56:09.546Z,79.17
2023-02-11T00:56:49.904Z,79.27
2023-02-11T00:57:29.038Z,79.47
2023-02-11T00:58:10.794Z,82.93
2023-02-11T00:58:50.310Z,79.57
2023-02-11T00:59:30.010Z,78.67
2023-02-11T01:00:15.333Z,79.87
2023-02-11T01:02:07.619Z,78.60
2023-02-11T01:02:46.979Z,78.67
2023-02-11T01:03:27.497Z,78.97
2023-02-11T01:04:07.470Z,79.13
2023-02-11T01:04:50.137Z,79.57
2023-02-11T01:05:29.005Z,78.90
2023-02-11T01:06:09.955Z,78.30
2023-02-11T01:07:32.150Z,77.97
2023-02-11T01:08:12.313Z,79.20
2023-02-11T01:09:31.778Z,80.20
2023-02-11T01:10:11.568Z,80.40
2023-02-11T01:10:54.081Z,82.37
2023-02-11T01:11:41.408Z,78.53
2023-02-11T01:12:20.885Z,77.87
2023-02-11T01:13:01.939Z,79.87
2023-02-11T01:13:40.796Z,75.73
2023-02-11T01:14:27.852Z,77.47
2023-02-11T01:15:09.330Z,78.13
2023-02-11T01:15:50.597Z,77.03
2023-02-11T01:16:30.238Z,76.87
2023-02-11T01:17:17.784Z,78.30
2023-02-11T01:18:11.026Z,76.03
2023-02-11T01:20:15.848Z,74.27
2023-02-11T01:21:33.069Z,73.33
2023-02-11T01:22:16.363Z,73.20
2023-02-11T01:23:35.185Z,68.93
2023-02-11T01:25:04.109Z,73.53
2023-02-11T01:25:43.047Z,73.27
2023-02-11T01:26:25.117Z,71.23
2023-02-11T01:27:13.935Z,73.33
2023-02-11T01:27:53.097Z,73.77
2023-02-11T01:29:09.727Z,73.40
2023-02-11T01:29:58.844Z,73.33
2023-02-11T01:31:03.086Z,72.73
2023-02-11T01:31:42.027Z,72.07
2023-02-11T01:33:22.823Z,72.60
2023-02-11T01:34:02.770Z,72.03
2023-02-11T01:34:55.020Z,73.07
2023-02-11T01:35:36.709Z,72.43
2023-02-11T01:36:19.038Z,72.57
2023-02-11T01:37:00.870Z,71.80
2023-02-11T01:38:04.831Z,70.40
2023-02-11T01:38:44.790Z,70.20
2023-02-11T01:39:34.389Z,71.63
2023-02-11T01:40:23.965Z,70.83
2023-02-11T01:41:15.019Z,70.63
2023-02-11T01:41:55.424Z,72.60
2023-02-11T01:42:43.957Z,71.27
2023-02-11T01:43:22.901Z,69.83
2023-02-11T01:44:29.350Z,70.47
2023-02-11T01:45:08.854Z,69.33
2023-02-11T01:45:59.888Z,69.67
2023-02-11T01:46:48.958Z,69.07
2023-02-11T01:47:28.058Z,70.57
2023-02-11T01:48:21.295Z,70.77
2023-02-11T01:51:27.683Z,71.67
2023-02-11T01:52:12.675Z,69.53
2023-02-11T01:53:31.845Z,70.33
2023-02-11T01:54:52.632Z,69.40
2023-02-11T01:55:53.604Z,68.13
2023-02-11T01:56:56.256Z,67.00
2023-02-11T01:58:39.755Z,67.87
2023-02-11T01:59:46.388Z,68.13
2023-02-11T02:01:07.047Z,67.60
2023-02-11T02:01:57.783Z,68.47
2023-02-11T02:04:05.830Z,65.53
2023-02-11T02:04:45.630Z,66.23
2023-02-11T02:06:01.878Z,66.43
2023-02-11T02:07:36.751Z,68.80
2023-02-11T02:08:29.552Z,67.10
2023-02-11T02:09:22.045Z,71.00
2023-02-11T02:10:00.931Z,70.30
2023-02-11T02:10:46.996Z,70.10
2023-02-11T02:11:36.204Z,68.73
2023-02-11T02:12:27.970Z,68.00
2023-02-11T02:13:07.533Z,68.67
2023-02-11T02:13:47.478Z,69.27
2023-02-11T02:14:27.111Z,69.13
2023-02-11T02:15:20.813Z,69.83
2023-02-11T02:17:45.385Z,68.57
2023-02-11T02:19:15.612Z,70.43
2023-02-11T02:21:07.138Z,69.20
2023-02-11T02:22:35.257Z,68.83
2023-02-11T02:23:54.033Z,67.97
2023-02-11T02:24:44.897Z,71.47
2023-02-11T02:25:52.620Z,70.97
2023-02-11T02:26:32.011Z,71.70
2023-02-11T02:27:27.660Z,72.03
2023-02-11T02:30:00.608Z,71.27
2023-02-11T02:31:27.685Z,71.90
2023-02-11T02:32:36.486Z,69.47
2023-02-11T02:33:38.675Z,70.80
2023-02-11T02:34:48.711Z,69.23
2023-02-11T02:35:57.861Z,69.60
2023-02-11T02:37:38.407Z,68.70
2023-02-11T02:38:57.423Z,67.67
2023-02-11T02:41:24.482Z,68.73
2023-02-11T02:42:02.782Z,68.80
2023-02-11T02:42:44.705Z,66.37
2023-02-11T02:43:23.757Z,68.20
2023-02-11T02:44:04.917Z,66.77
2023-02-11T02:44:46.776Z,66.90
2023-02-11T02:45:30.649Z,66.50
2023-02-11T02:46:20.698Z,67.80
2023-02-11T02:47:01.350Z,71.40
2023-02-11T02:47:41.046Z,69.13
2023-02-11T02:48:19.888Z,65.20
2023-02-11T02:48:59.817Z,69.10
2023-02-11T02:50:35.102Z,67.97
2023-02-11T02:51:13.638Z,69.37
2023-02-11T02:52:11.755Z,67.33
2023-02-11T02:54:25.858Z,68.23
2023-02-11T02:56:05.002Z,66.67
2023-02-11T02:56:55.925Z,65.07
2023-02-11T02:57:56.444Z,67.70
2023-02-11T02:58:47.661Z,66.63
2023-02-11T02:59:42.181Z,68.83
2023-02-11T03:00:51.544Z,66.90
2023-02-11T03:01:54.835Z,67.67
2023-02-11T03:03:16.110Z,68.43
2023-02-11T03:04:13.721Z,67.13
2023-02-11T03:04:54.057Z,70.73
2023-02-11T03:06:09.160Z,68.17
2023-02-11T03:06:49.800Z,68.53
2023-02-11T03:08:12.821Z,68.47
2023-02-11T03:09:57.133Z,69.37
2023-02-11T03:10:41.848Z,69.27
2023-02-11T03:11:28.171Z,70.53
2023-02-11T03:12:08.779Z,66.10
2023-02-11T03:13:12.368Z,67.63
2023-02-11T03:14:04.953Z,68.10
2023-02-11T03:14:45.965Z,67.83
2023-02-11T03:15:31.451Z,67.60
2023-02-11T03:16:26.257Z,68.63
2023-02-11T03:17:18.762Z,68.23
2023-02-11T03:18:35.804Z,66.53
2023-02-11T03:19:21.703Z,66.90
2023-02-11T03:20:00.806Z,68.70
2023-02-11T03:20:48.645Z,66.53
2023-02-11T03:21:33.091Z,66.87
2023-02-11T03:22:22.915Z,67.80
2023-02-11T03:23:02.148Z,67.03
2023-02-11T03:23:52.006Z,66.60
2023-02-11T03:26:54.729Z,64.73
2023-02-11T03:27:55.890Z,67.03
2023-02-11T03:29:32.358Z,66.07
2023-02-11T03:30:28.720Z,66.00
2023-02-11T03:31:20.864Z,69.23
2023-02-11T03:32:16.176Z,66.07
2023-02-11T03:33:12.638Z,65.03
2023-02-11T03:35:25.892Z,65.87
2023-02-11T03:36:15.249Z,66.13
2023-02-11T03:38:09.741Z,68.53
2023-02-11T03:38:58.769Z,68.00
2023-02-11T03:39:57.424Z,67.97
2023-02-11T03:40:40.106Z,66.50
2023-02-11T03:41:31.552Z,68.10
2023-02-11T03:42:14.673Z,68.03
2023-02-11T03:43:17.505Z,66.37
2023-02-11T03:43:56.680Z,66.73
2023-02-11T03:44:47.469Z,65.50
2023-02-11T03:46:09.719Z,63.77
2023-02-11T03:46:57.130Z,67.17
2023-02-11T03:47:40.046Z,68.17
2023-02-11T03:48:32.204Z,68.03
2023-02-11T03:49:20.148Z,68.13
2023-02-11T03:52:48.468Z,69.40
2023-02-11T03:53:27.351Z,71.77
2023-02-11T03:54:12.566Z,70.13
2023-02-11T03:54:58.016Z,67.03
2023-02-11T03:55:42.360Z,68.80
2023-02-11T03:56:29.387Z,72.37
2023-02-11T03:57:09.502Z,72.17
2023-02-11T03:58:27.708Z,72.37
2023-02-11T03:59:10.149Z,71.57
2023-02-11T03:59:48.991Z,70.50
2023-02-11T04:00:37.672Z,71.93
2023-02-11T04:01:17.014Z,72.10
2023-02-11T04:01:57.782Z,71.33
2023-02-11T04:02:36.822Z,71.30
2023-02-11T04:03:16.416Z,73.07
2023-02-11T04:03:56.347Z,71.63
2023-02-11T04:04:36.082Z,72.67
2023-02-11T04:05:17.845Z,71.50
2023-02-11T04:07:02.321Z,72.80
2023-02-11T04:07:51.087Z,71.03
2023-02-11T04:08:31.989Z,71.33
2023-02-11T04:09:36.946Z,71.13
2023-02-11T04:11:16.199Z,72.73
2023-02-11T04:12:19.591Z,71.60
2023-02-11T04:13:02.172Z,71.20
2023-02-11T04:13:41.174Z,72.90
2023-02-11T04:14:20.112Z,74.17
2023-02-11T04:14:59.120Z,71.70
2023-02-11T04:15:38.396Z,71.93
2023-02-11T04:17:14.064Z,73.00
2023-02-11T04:17:54.429Z,72.83
2023-02-11T04:18:33.919Z,74.50
2023-02-11T04:19:14.581Z,72.43
2023-02-11T04:19:56.857Z,72.27
2023-02-11T04:20:42.908Z,73.07
2023-02-11T04:21:22.384Z,71.47
2023-02-11T04:22:27.201Z,71.73
2023-02-11T04:23:45.104Z,72.33
2023-02-11T04:25:02.382Z,71.43
2023-02-11T04:25:43.490Z,70.03
2023-02-11T04:26:23.166Z,72.20
2023-02-11T04:30:34.818Z,70.70
2023-02-11T04:31:15.284Z,71.20
2023-02-11T04:32:43.733Z,73.37
2023-02-11T04:33:23.060Z,72.10
2023-02-11T04:34:02.189Z,71.87
2023-02-11T04:35:46.638Z,71.03
2023-02-11T04:36:29.386Z,73.90
2023-02-11T04:37:08.725Z,70.63
2023-02-11T04:37:48.815Z,71.67
2023-02-11T04:38:32.314Z,72.33
2023-02-11T04:40:33.528Z,72.53
2023-02-11T04:41:52.831Z,72.83
2023-02-11T04:42:32.209Z,71.43
2023-02-11T04:43:11.873Z,72.53
2023-02-11T04:43:51.120Z,72.10
2023-02-11T04:44:32.816Z,73.10
2023-02-11T04:45:15.264Z,73.10
2023-02-11T04:46:02.894Z,72.97
2023-02-11T04:46:45.155Z,73.37
2023-02-11T04:48:13.204Z,73.97
2023-02-11T04:48:53.448Z,74.33
2023-02-11T04:49:33.131Z,71.53
2023-02-11T04:50:13.245Z,72.53
2023-02-11T04:50:52.536Z,72.83
2023-02-11T04:54:31.237Z,72.87
2023-02-11T04:56:01.864Z,71.77
2023-02-11T04:56:41.280Z,72.80
2023-02-11T04:58:48.779Z,73.23
2023-02-11T04:59:28.458Z,71.60
2023-02-11T05:00:10.187Z,74.40
2023-02-11T05:01:43.094Z,72.73
2023-02-11T05:03:51.170Z,73.77
2023-02-11T05:04:30.376Z,72.67
2023-02-11T05:05:10.740Z,74.60
2023-02-11T05:05:49.386Z,74.17
2023-02-11T05:06:53.805Z,74.70
2023-02-11T05:08:57.815Z,77.40
2023-02-11T05:09:36.875Z,76.37
2023-02-11T05:10:40.993Z,74.93
2023-02-11T05:11:21.328Z,78.30
2023-02-11T05:12:00.715Z,77.23
2023-02-11T05:12:39.853Z,75.07
2023-02-11T05:13:19.146Z,75.73
2023-02-11T05:13:58.970Z,77.10
2023-02-11T05:15:27.166Z,75.57
2023-02-11T05:16:06.296Z,76.77
2023-02-11T05:16:45.647Z,75.50
2023-02-11T05:17:26.256Z,75.83
2023-02-11T05:18:06.590Z,74.73
2023-02-11T05:18:46.475Z,76.23
2023-02-11T05:19:26.092Z,75.67
2023-02-11T05:20:44.036Z,78.03
2023-02-11T05:21:23.431Z,76.93
2023-02-11T05:22:04.814Z,77.27
2023-02-11T05:22:45.719Z,79.43
2023-02-11T05:23:25.280Z,76.97
2023-02-11T05:24:06.056Z,77.90
2023-02-11T05:24:45.770Z,75.40
2023-02-11T05:25:25.086Z,77.17
2023-02-11T05:26:05.951Z,78.20
2023-02-11T05:26:45.159Z,75.67
2023-02-11T05:27:24.227Z,77.37
2023-02-11T05:28:04.916Z,78.53
2023-02-11T05:28:44.774Z,77.97
2023-02-11T05:29:24.194Z,79.67
2023-02-11T05:30:05.745Z,78.60
2023-02-11T05:33:25.863Z,77.47
2023-02-11T05:34:13.271Z,77.73
2023-02-11T05:36:26.925Z,78.03
2023-02-11T05:37:10.379Z,75.53
2023-02-11T05:38:28.120Z,75.90
2023-02-11T05:39:07.131Z,75.90
2023-02-11T05:39:45.886Z,75.97
2023-02-11T05:40:28.199Z,72.50
2023-02-11T05:44:01.302Z,72.43
2023-02-11T05:45:19.335Z,71.43
2023-02-11T05:46:00.984Z,72.53
2023-02-11T05:46:50.869Z,72.63
2023-02-11T05:48:38.310Z,72.97
2023-02-11T05:49:18.847Z,71.97
2023-02-11T05:50:05.125Z,73.53
2023-02-11T05:50:53.276Z,72.67
2023-02-11T05:51:40.740Z,73.80
2023-02-11T05:52:19.924Z,73.37
2023-02-11T05:53:00.288Z,74.43
2023-02-11T05:53:43.027Z,73.83
2023-02-11T05:54:22.175Z,72.33
2023-02-11T05:55:03.940Z,75.27
2023-02-11T05:55:43.136Z,79.07
2023-02-11T05:56:32.780Z,76.53
2023-02-11T05:57:12.032Z,75.73
2023-02-11T05:57:51.195Z,76.13
2023-02-11T05:58:54.771Z,75.70
2023-02-11T05:59:47.045Z,74.67
2023-02-11T06:01:04.434Z,75.20
2023-02-11T06:01:51.897Z,75.77
2023-02-11T06:03:25.479Z,76.63
2023-02-11T06:04:06.069Z,76.93
2023-02-11T06:04:54.956Z,74.43
2023-02-11T06:05:34.453Z,72.13
2023-02-11T06:06:28.001Z,73.40
2023-02-11T06:07:10.168Z,75.37
2023-02-11T06:07:52.746Z,73.27
2023-02-11T06:08:36.974Z,75.73
2023-02-11T06:09:17.134Z,73.23
2023-02-11T06:09:56.342Z,74.17
2023-02-11T06:10:35.227Z,76.47
2023-02-11T06:11:24.045Z,76.90
2023-02-11T06:12:17.001Z,76.60
2023-02-11T06:12:56.834Z,76.37
2023-02-11T06:13:36.627Z,73.43
2023-02-11T06:14:16.197Z,76.23
2023-02-11T06:14:55.174Z,73.07
2023-02-11T06:15:42.151Z,73.00
2023-02-11T06:16:21.315Z,75.53
2023-02-11T06:17:25.599Z,75.00
2023-02-11T06:18:53.211Z,74.53
2023-02-11T06:19:32.827Z,74.00
2023-02-11T06:21:44.129Z,74.27
2023-02-11T06:22:26.954Z,74.10
2023-02-11T06:23:07.424Z,74.47
2023-02-11T06:23:49.882Z,72.73
2023-02-11T06:24:54.599Z,74.13
2023-02-11T06:25:32.009Z,73.90
2023-02-11T06:26:21.164Z,74.37
2023-02-11T06:26:59.947Z,73.73
2023-02-11T06:27:39.759Z,72.03
2023-02-11T06:28:20.136Z,72.47
2023-02-11T06:30:19.297Z,74.33
2023-02-11T06:31:36.952Z,74.03
2023-02-11T06:32:37.042Z,77.97
2023-02-11T06:33:15.839Z,80.07
2023-02-11T06:33:55.697Z,75.17
2023-02-11T06:34:35.901Z,73.80
2023-02-11T06:36:22.097Z,71.73
2023-02-11T06:37:00.999Z,72.53
2023-02-11T06:37:41.549Z,73.37
2023-02-11T06:38:30.714Z,69.73
2023-02-11T06:39:10.423Z,71.80
2023-02-11T06:40:33.701Z,71.07
2023-02-11T06:42:02.207Z,69.67
2023-02-11T06:42:41.878Z,70.13
2023-02-11T06:43:24.213Z,70.17
2023-02-11T06:44:13.072Z,69.27
2023-02-11T06:44:52.451Z,71.13
2023-02-11T06:46:50.742Z,68.97
2023-02-11T06:47:34.360Z,67.47
2023-02-11T06:48:56.418Z,71.57
2023-02-11T06:49:35.811Z,69.13
2023-02-11T06:50:16.224Z,68.33
2023-02-11T06:50:56.419Z,66.77
2023-02-11T06:51:35.464Z,65.67
2023-02-11T06:52:27.037Z,67.30
2023-02-11T06:53:07.204Z,67.43
2023-02-11T06:54:11.625Z,67.40
2023-02-11T06:55:49.410Z,67.00
2023-02-11T06:57:31.044Z,65.07
2023-02-11T06:58:54.859Z,66.83
2023-02-11T07:00:13.923Z,68.20
2023-02-11T07:00:56.104Z,66.27
2023-02-11T07:02:21.347Z,67.23
2023-02-11T07:04:28.951Z,63.33
2023-02-11T07:05:15.965Z,63.50
2023-02-11T07:05:55.181Z,65.70
2023-02-11T07:06:58.600Z,64.63
2023-02-11T07:08:16.583Z,63.83
2023-02-11T07:09:38.375Z,62.23
2023-02-11T07:10:31.622Z,62.60
2023-02-11T07:11:18.838Z,60.70
2023-02-11T07:11:57.924Z,60.90
2023-02-11T07:12:57.015Z,61.50
2023-02-11T07:14:41.611Z,62.37
2023-02-11T07:16:06.476Z,60.67
2023-02-11T07:16:45.897Z,61.53
2023-02-11T07:17:26.576Z,61.77
2023-02-11T07:18:06.303Z,60.53
2023-02-11T07:18:47.191Z,59.03
2023-02-11T07:19:28.896Z,61.43
2023-02-11T07:20:09.705Z,61.23
2023-02-11T07:20:52.378Z,59.67
2023-02-11T07:21:44.306Z,60.90
2023-02-11T07:23:42.864Z,61.27
2023-02-11T07:24:32.656Z,61.27
2023-02-11T07:25:21.977Z,60.60
2023-02-11T07:26:26.105Z,61.53
2023-02-11T07:28:12.078Z,63.17
2023-02-11T07:29:00.528Z,62.17
2023-02-11T07:29:42.782Z,64.57
2023-02-11T07:30:30.867Z,64.47
2023-02-11T07:31:16.391Z,63.60
2023-02-11T07:32:06.385Z,62.87
2023-02-11T07:33:25.075Z,61.93
2023-02-11T07:34:07.179Z,62.37
2023-02-11T07:34:46.048Z,63.80
2023-02-11T07:35:28.164Z,62.67
2023-02-11T07:37:50.328Z,62.33
2023-02-11T07:39:13.097Z,60.50
2023-02-11T07:39:55.285Z,63.17
2023-02-11T07:40:36.985Z,63.00
2023-02-11T07:41:24.902Z,63.77
2023-02-11T07:42:04.262Z,62.13
2023-02-11T07:42:43.268Z,60.97
2023-02-11T07:43:25.203Z,62.77
2023-02-11T07:44:12.332Z,61.47
2023-02-11T07:45:55.439Z,60.70
2023-02-11T07:47:12.947Z,62.53
2023-02-11T07:47:52.248Z,61.10
2023-02-11T07:49:30.064Z,61.43
2023-02-11T07:50:10.423Z,61.20
2023-02-11T07:50:50.520Z,62.83
2023-02-11T07:51:53.670Z,65.33
2023-02-11T07:53:42.147Z,63.20
2023-02-11T07:54:21.553Z,62.20
2023-02-11T07:55:13.115Z,60.53
2023-02-11T07:55:52.712Z,63.27
2023-02-11T07:56:34.007Z,61.97
2023-02-11T07:57:20.840Z,61.33
2023-02-11T07:58:08.240Z,62.70
2023-02-11T07:58:56.897Z,59.93
2023-02-11T07:59:36.206Z,60.03
2023-02-11T08:00:15.790Z,58.97
2023-02-11T08:01:07.062Z,61.20
2023-02-11T08:01:51.480Z,60.73
2023-02-11T08:02:32.462Z,60.87
2023-02-11T08:03:12.932Z,62.00
2023-02-11T08:03:55.054Z,60.83
2023-02-11T08:04:42.186Z,60.37
2023-02-11T08:05:21.176Z,59.43
2023-02-11T08:06:08.267Z,59.00
2023-02-11T08:06:48.670Z,60.03
2023-02-11T08:07:29.905Z,58.73
2023-02-11T08:08:08.876Z,59.60
2023-02-11T08:08:51.878Z,60.60
2023-02-11T08:09:34.436Z,59.10
2023-02-11T08:10:22.085Z,58.83
2023-02-11T08:11:09.974Z,60.00
2023-02-11T08:12:13.863Z,61.63
2023-02-11T08:14:33.060Z,60.07
2023-02-11T08:15:12.027Z,59.40
2023-02-11T08:15:52.535Z,59.17
2023-02-11T08:16:35.013Z,60.37
2023-02-11T08:17:24.196Z,60.57
2023-02-11T08:18:27.850Z,56.53
2023-02-11T08:19:07.851Z,57.40
2023-02-11T08:19:57.287Z,56.63
2023-02-11T08:21:14.240Z,57.43
2023-02-11T08:24:17.007Z,55.03
2023-02-11T08:25:35.672Z,53.03
2023-02-11T08:26:57.277Z,54.33
2023-02-11T08:27:39.218Z,55.07
2023-02-11T08:28:43.954Z,54.13
2023-02-11T08:30:11.530Z,54.20
2023-02-11T08:30:55.636Z,55.80
2023-02-11T08:31:40.543Z,55.33
2023-02-11T08:32:21.128Z,56.23
2023-02-11T08:33:08.364Z,56.13
2023-02-11T08:34:12.084Z,55.20
2023-02-11T08:35:40.851Z,55.23
2023-02-11T08:36:31.171Z,55.23
2023-02-11T08:37:19.693Z,54.57
2023-02-11T08:38:23.514Z,53.97
2023-02-11T08:40:21.858Z,54.03
2023-02-11T08:41:01.794Z,55.30
2023-02-11T08:42:22.426Z,55.20
2023-02-11T08:45:00.398Z,55.40
2023-02-11T08:45:47.449Z,54.17
2023-02-11T08:46:26.539Z,55.53
2023-02-11T08:47:06.198Z,54.60
2023-02-11T08:47:48.311Z,55.77
2023-02-11T08:48:51.650Z,57.07
2023-02-11T08:51:19.185Z,56.27
2023-02-11T08:52:02.230Z,53.70
2023-02-11T08:52:44.712Z,54.93
2023-02-11T08:53:27.607Z,56.17
2023-02-11T08:54:09.925Z,53.70
2023-02-11T08:54:59.264Z,52.73
2023-02-11T08:55:39.466Z,55.13
2023-02-11T08:56:20.552Z,55.03
2023-02-11T08:57:01.972Z,54.33
2023-02-11T08:57:44.250Z,56.30
2023-02-11T08:58:23.499Z,54.27
2023-02-11T08:59:03.638Z,54.90
2023-02-11T08:59:42.317Z,55.37
2023-02-11T09:00:34.176Z,55.30
2023-02-11T09:01:22.964Z,56.77
2023-02-11T09:02:14.169Z,55.67
2023-02-11T09:03:41.545Z,55.10
2023-02-11T09:04:44.860Z,57.40
2023-02-11T09:06:06.488Z,57.13
2023-02-11T09:06:44.882Z,54.67
2023-02-11T09:07:28.827Z,55.80
2023-02-11T09:08:13.005Z,55.00
2023-02-11T09:08:55.755Z,56.17
2023-02-11T09:09:36.399Z,54.60
2023-02-11T09:10:15.271Z,54.00
2023-02-11T09:10:57.368Z,55.87
2023-02-11T09:12:01.527Z,55.87
2023-02-11T09:12:57.215Z,55.23
2023-02-11T09:13:46.409Z,55.57
2023-02-11T09:14:25.381Z,53.63
2023-02-11T09:15:06.082Z,54.57
2023-02-11T09:15:48.271Z,54.73
2023-02-11T09:16:30.334Z,54.70
2023-02-11T09:17:09.455Z,53.33
2023-02-11T09:17:59.278Z,53.87
2023-02-11T09:19:50.001Z,53.10
2023-02-11T09:20:32.606Z,54.93
2023-02-11T09:21:12.661Z,55.67
2023-02-11T09:21:52.832Z,56.97
2023-02-11T09:23:22.896Z,56.60
2023-02-11T09:24:02.451Z,56.43
2023-02-11T09:24:42.370Z,56.10
2023-02-11T09:26:41.234Z,56.83
2023-02-11T09:27:28.308Z,58.20
2023-02-11T09:28:11.640Z,56.77
2023-02-11T09:28:52.236Z,60.77
2023-02-11T09:33:48.047Z,64.60
2023-02-11T09:34:41.140Z,62.90
2023-02-11T09:35:49.210Z,63.83
2023-02-11T09:36:32.590Z,63.30
2023-02-11T09:37:21.110Z,66.53
2023-02-11T09:38:01.364Z,65.50
2023-02-11T09:39:32.671Z,65.53
2023-02-11T09:40:20.819Z,63.90
2023-02-11T09:41:04.081Z,69.03
2023-02-11T09:42:11.354Z,68.97
2023-02-11T09:43:53.769Z,63.40
2023-02-11T09:44:32.908Z,67.43
2023-02-11T09:45:41.269Z,63.80
2023-02-11T09:46:25.737Z,62.97
2023-02-11T09:48:05.790Z,63.13
2023-02-11T09:50:10.453Z,60.23
2023-02-11T09:51:04.166Z,61.67
2023-02-11T09:52:18.660Z,62.43
2023-02-11T09:54:30.880Z,61.53
2023-02-11T09:56:39.004Z,55.90
2023-02-11T09:57:29.037Z,55.57
2023-02-11T09:58:34.041Z,54.97
2023-02-11T10:01:52.924Z,55.10
2023-02-11T10:04:08.392Z,55.83
2023-02-11T10:05:27.345Z,54.83
2023-02-11T10:06:57.911Z,53.57
2023-02-11T10:08:15.837Z,52.50
2023-02-11T10:11:31.218Z,56.23
2023-02-11T10:12:48.036Z,52.87
2023-02-11T10:14:45.239Z,52.60
2023-02-11T10:15:56.269Z,54.30
2023-02-11T10:18:54.630Z,54.97
2023-02-11T10:21:27.957Z,55.60
2023-02-11T10:22:07.064Z,56.90
2023-02-11T10:22:52.650Z,55.50
2023-02-11T10:25:05.814Z,55.37
2023-02-11T10:26:20.850Z,54.77
2023-02-11T10:28:34.791Z,55.37
2023-02-11T10:29:36.857Z,56.57
2023-02-11T10:30:26.539Z,55.23
2023-02-11T10:31:15.846Z,57.60
2023-02-11T10:32:22.072Z,55.83
2023-02-11T10:33:21.523Z,55.10
2023-02-11T10:36:54.175Z,56.47
2023-02-11T10:38:48.200Z,56.63
2023-02-11T10:39:52.209Z,56.97
2023-02-11T10:41:38.131Z,55.57
2023-02-11T10:43:03.701Z,54.47
2023-02-11T10:43:44.346Z,54.57
2023-02-11T10:44:31.153Z,55.60
2023-02-11T10:45:29.951Z,54.97
2023-02-11T10:46:19.620Z,54.53
2023-02-11T10:47:25.393Z,53.87
2023-02-11T10:48:53.025Z,53.70
2023-02-11T10:50:35.337Z,54.13
2023-02-11T10:51:28.567Z,53.83
2023-02-11T10:52:31.788Z,55.77
2023-02-11T10:54:37.225Z,50.50
2023-02-11T10:55:23.221Z,53.23
2023-02-11T10:56:40.919Z,50.33
2023-02-11T10:57:33.643Z,51.00
2023-02-11T10:58:28.688Z,53.77
2023-02-11T10:59:27.576Z,52.90
2023-02-11T11:00:39.017Z,50.47
2023-02-11T11:02:01.875Z,51.90
2023-02-11T11:03:27.521Z,52.03
2023-02-11T11:05:31.398Z,52.10
2023-02-11T11:06:13.667Z,51.20
2023-02-11T11:07:24.921Z,52.43
2023-02-11T11:09:01.331Z,51.63
2023-02-11T11:11:08.114Z,50.30
2023-02-11T11:12:12.167Z,49.47
2023-02-11T11:12:51.670Z,50.50
2023-02-11T11:13:40.009Z,52.53
2023-02-11T11:14:20.455Z,50.93
2023-02-11T11:15:11.448Z,50.37
2023-02-11T11:16:13.249Z,50.37
2023-02-11T11:17:32.513Z,48.53
2023-02-11T11:19:15.529Z,49.30
2023-02-11T11:20:13.862Z,48.43
2023-02-11T11:22:22.953Z,48.50
2023-02-11T11:23:20.322Z,46.93
2023-02-11T11:25:44.528Z,48.17
2023-02-11T11:26:50.743Z,47.73
2023-02-11T11:30:39.405Z,48.10
2023-02-11T11:33:03.325Z,50.27
2023-02-11T11:34:48.508Z,47.07
2023-02-11T11:37:33.052Z,47.10
2023-02-11T11:38:15.010Z,47.33
2023-02-11T11:39:04.800Z,46.00
2023-02-11T11:40:38.049Z,44.97
2023-02-11T11:41:53.779Z,44.80
2023-02-11T11:42:32.994Z,44.30
2023-02-11T11:43:15.203Z,43.00
2023-02-11T11:45:33.497Z,43.13
2023-02-11T11:47:15.021Z,40.53
2023-02-11T11:48:25.239Z,41.53
2023-02-11T11:50:52.441Z,40.63
2023-02-11T11:53:31.255Z,42.03
2023-02-11T11:54:17.820Z,43.90
2023-02-11T11:55:24.891Z,42.30
2023-02-11T11:56:09.287Z,44.33
2023-02-11T11:57:06.278Z,43.90
2023-02-11T11:57:49.104Z,45.70
2023-02-11T11:58:30.134Z,43.67
2023-02-11T12:00:05.126Z,44.40
2023-02-11T12:01:22.647Z,44.60
2023-02-11T12:02:56.327Z,43.53
2023-02-11T12:03:37.993Z,43.33
2023-02-11T12:04:30.057Z,43.07
2023-02-11T12:05:27.086Z,42.60
2023-02-11T12:06:19.222Z,42.97
2023-02-11T12:07:12.790Z,42.80
2023-02-11T12:08:31.793Z,41.50
2023-02-11T12:09:43.936Z,42.77
2023-02-11T12:11:31.567Z,41.67
2023-02-11T12:12:36.013Z,41.53
2023-02-11T12:13:29.702Z,43.07
2023-02-11T12:14:25.033Z,42.73
2023-02-11T12:15:32.680Z,44.07
2023-02-11T12:17:25.581Z,42.47
2023-02-11T12:18:40.074Z,44.00
2023-02-11T12:20:01.446Z,43.50
2023-02-11T12:21:09.364Z,42.63
2023-02-11T12:22:21.813Z,41.83
2023-02-11T12:24:46.591Z,43.23
2023-02-11T12:26:53.456Z,44.83
2023-02-11T12:28:03.273Z,45.80
2023-02-11T12:28:58.518Z,43.77
2023-02-11T12:30:04.018Z,43.73
2023-02-11T12:30:44.572Z,43.70
2023-02-11T12:32:28.630Z,42.90
2023-02-11T12:35:02.049Z,42.33
2023-02-11T12:36:09.472Z,43.73
2023-02-11T12:36:54.461Z,41.97
2023-02-11T12:37:45.869Z,41.67
2023-02-11T12:38:45.233Z,43.93
2023-02-11T12:39:51.684Z,42.40
2023-02-11T12:40:42.957Z,43.03
2023-02-11T12:42:01.185Z,42.27
2023-02-11T12:43:18.834Z,40.93
2023-02-11T12:44:01.602Z,39.50
2023-02-11T12:46:41.223Z,40.70
2023-02-11T12:47:20.056Z,41.67
2023-02-11T12:48:22.685Z,40.03
2023-02-11T12:49:30.122Z,41.43
2023-02-11T12:50:48.322Z,38.97
2023-02-11T12:51:58.366Z,38.13
2023-02-11T12:54:06.830Z,39.63
2023-02-11T12:56:20.858Z,40.70
2023-02-11T12:57:00.991Z,40.10
2023-02-11T12:57:43.662Z,39.70
2023-02-11T12:58:42.938Z,39.97
2023-02-11T12:59:34.963Z,40.40
2023-02-11T13:00:27.733Z,38.57
2023-02-11T13:01:22.535Z,37.93
2023-02-11T13:02:30.876Z,36.93
2023-02-11T13:03:18.440Z,38.47
2023-02-11T13:04:08.595Z,39.60
2023-02-11T13:04:56.626Z,39.07
2023-02-11T13:05:46.215Z,39.13
2023-02-11T13:06:57.086Z,37.13
2023-02-11T13:08:33.945Z,41.43
2023-02-11T13:09:22.725Z,40.13
2023-02-11T13:10:33.911Z,38.03
2023-02-11T13:13:26.768Z,38.93
2023-02-11T13:14:16.177Z,38.53
2023-02-11T13:15:03.225Z,38.67
2023-02-11T13:16:22.964Z,40.40
2023-02-11T13:17:49.157Z,40.70
2023-02-11T13:18:28.996Z,42.17
2023-02-11T13:19:34.426Z,38.53
2023-02-11T13:20:31.423Z,39.77
2023-02-11T13:21:13.136Z,39.50
2023-02-11T13:22:02.666Z,40.03
2023-02-11T13:22:54.056Z,38.63
2023-02-11T13:24:34.060Z,39.77
2023-02-11T13:25:39.195Z,37.83
2023-02-11T13:27:28.843Z,37.27
2023-02-11T13:28:17.430Z,36.53
2023-02-11T13:29:17.672Z,36.83
2023-02-11T13:30:20.363Z,35.97
2023-02-11T13:32:09.599Z,36.97
2023-02-11T13:33:34.241Z,37.27
2023-02-11T13:34:25.456Z,37.77
2023-02-11T13:35:28.354Z,36.67
2023-02-11T13:36:55.752Z,38.03
2023-02-11T13:37:48.429Z,36.50
2023-02-11T13:38:31.467Z,36.23